createdAt,value
2018-06-14T00:02:11.417Z,97930.00
2018-06-14T00:04:42.956Z,97929.00
2018-06-14T00:07:14.618Z,97929.00
2018-06-14T00:09:46.182Z,97930.00
2018-06-14T00:12:17.622Z,97929.00
2018-06-14T00:14:49.185Z,97926.00
2018-06-14T00:17:20.719Z,97926.00
2018-06-14T00:19:52.463Z,97927.00
2018-06-14T00:22:24.035Z,97931.00
2018-06-14T00:24:55.761Z,97933.00
2018-06-14T00:27:27.356Z,97929.00
2018-06-14T00:29:59.159Z,97929.00
2018-06-14T00:32:30.884Z,97928.00
2018-06-14T00:35:02.475Z,97927.00
2018-06-14T00:37:34.213Z,97923.00
2018-06-14T00:40:05.886Z,97927.00
2018-06-14T00:42:37.625Z,97923.00
2018-06-14T00:45:09.349Z,97927.00
2018-06-14T00:47:41.028Z,97927.00
2018-06-14T00:50:12.581Z,97930.00
2018-06-14T00:52:44.209Z,97933.00
2018-06-14T00:55:15.785Z,97934.00
2018-06-14T00:57:47.397Z,97931.00
2018-06-14T01:00:19.105Z,97933.00
2018-06-14T01:02:50.645Z,97935.00
2018-06-14T01:05:22.434Z,97934.00
2018-06-14T01:07:53.538Z,97932.00
2018-06-14T01:10:25.013Z,97934.00
2018-06-14T01:12:56.621Z,97936.00
2018-06-14T01:15:28.222Z,97926.00
2018-06-14T01:17:59.264Z,97929.00
2018-06-14T01:20:30.759Z,97929.00
2018-06-14T01:23:02.482Z,97924.00
2018-06-14T01:25:34.121Z,97927.00
2018-06-14T01:28:05.813Z,97930.00
2018-06-14T01:30:37.785Z,97929.00
2018-06-14T01:33:09.399Z,97920.00
2018-06-14T01:35:41.072Z,97922.00
2018-06-14T01:38:24.154Z,97917.00
2018-06-14T01:40:56.189Z,97918.00
2018-06-14T01:43:27.915Z,97915.00
2018-06-14T01:45:59.573Z,97921.00
2018-06-14T01:48:31.183Z,97916.00
2018-06-14T01:51:02.815Z,97908.00
2018-06-14T01:53:34.492Z,97902.00
2018-06-14T01:56:06.125Z,97900.00
2018-06-14T01:58:37.796Z,97901.00
2018-06-14T02:01:09.396Z,97899.00
2018-06-14T02:03:40.946Z,97904.00
2018-06-14T02:06:12.669Z,97903.00
2018-06-14T02:08:44.261Z,97900.00
2018-06-14T02:11:15.942Z,97901.00
2018-06-14T02:13:47.478Z,97893.00
2018-06-14T02:16:19.263Z,97893.00
2018-06-14T02:18:50.777Z,97892.00
2018-06-14T02:21:22.460Z,97889.00
2018-06-14T02:23:53.890Z,97890.00
2018-06-14T02:26:25.570Z,97890.00
2018-06-14T02:28:57.116Z,97895.00
2018-06-14T02:31:28.926Z,97897.00
2018-06-14T02:34:00.482Z,97901.00
2018-06-14T02:36:32.335Z,97911.00
2018-06-14T02:39:04.372Z,97911.00
2018-06-14T02:41:35.934Z,97911.00
2018-06-14T02:44:07.637Z,97914.00
2018-06-14T02:46:39.250Z,97914.00
2018-06-14T02:49:10.891Z,97907.00
2018-06-14T02:51:42.537Z,97912.00
2018-06-14T02:54:14.071Z,97909.00
2018-06-14T02:56:45.808Z,97914.00
2018-06-14T02:59:17.445Z,97913.00
2018-06-14T03:01:49.203Z,97918.00
2018-06-14T03:04:20.917Z,97913.00
2018-06-14T03:06:52.663Z,97917.00
2018-06-14T03:09:24.265Z,97917.00
2018-06-14T03:11:56.042Z,97917.00
2018-06-14T03:14:27.661Z,97923.00
2018-06-14T03:16:59.244Z,97925.00
2018-06-14T03:19:30.896Z,97927.00
2018-06-14T03:22:02.672Z,97934.00
2018-06-14T03:24:34.275Z,97929.00
2018-06-14T03:27:05.925Z,97930.00
2018-06-14T03:29:37.581Z,97935.00
2018-06-14T03:32:09.313Z,97941.00
2018-06-14T03:34:40.899Z,97939.00
2018-06-14T03:37:12.609Z,97937.00
2018-06-14T03:39:44.323Z,97935.00
2018-06-14T03:42:16.761Z,97945.00
2018-06-14T03:44:48.549Z,97942.00
2018-06-14T03:47:20.134Z,97943.00
2018-06-14T03:49:51.896Z,97945.00
2018-06-14T03:52:23.547Z,97954.00
2018-06-14T03:54:55.278Z,97950.00
2018-06-14T03:57:26.888Z,97952.00
2018-06-14T03:59:58.590Z,97950.00
2018-06-14T04:02:30.257Z,97954.00
2018-06-14T04:05:01.981Z,97951.00
2018-06-14T04:07:34.021Z,97956.00
2018-06-14T04:10:05.886Z,97955.00
2018-06-14T04:12:37.649Z,97957.00
2018-06-14T04:15:09.349Z,97962.00
2018-06-14T04:17:41.065Z,97959.00
2018-06-14T04:20:12.558Z,97962.00
2018-06-14T04:22:44.320Z,97966.00
2018-06-14T04:25:15.976Z,97968.00
2018-06-14T04:27:47.670Z,97970.00
2018-06-14T04:30:19.595Z,97976.00
2018-06-14T04:32:51.434Z,97971.00
2018-06-14T04:35:23.041Z,97974.00
2018-06-14T04:37:54.769Z,97974.00
2018-06-14T04:40:26.425Z,97974.00
2018-06-14T04:42:58.012Z,97966.00
2018-06-14T04:45:29.796Z,97973.00
2018-06-14T04:48:01.426Z,97973.00
2018-06-14T04:50:33.152Z,97968.00
2018-06-14T04:53:04.706Z,97972.00
2018-06-14T04:55:36.368Z,97971.00
2018-06-14T04:58:08.027Z,97969.00
2018-06-14T05:00:39.582Z,97966.00
2018-06-14T05:03:11.238Z,97969.00
2018-06-14T05:05:42.785Z,97967.00
2018-06-14T05:08:18.332Z,97965.00
2018-06-14T05:10:49.973Z,97970.00
2018-06-14T05:13:21.889Z,97967.00
2018-06-14T05:15:54.181Z,97966.00
2018-06-14T05:18:25.984Z,97970.00
2018-06-14T05:20:57.634Z,97969.00
2018-06-14T05:23:29.638Z,97970.00
2018-06-14T05:26:01.273Z,97962.00
2018-06-14T05:28:33.021Z,97962.00
2018-06-14T05:31:04.694Z,97969.00
2018-06-14T05:33:36.333Z,97969.00
2018-06-14T05:36:07.855Z,97964.00
2018-06-14T05:38:39.546Z,97961.00
2018-06-14T05:41:11.255Z,97959.00
2018-06-14T05:43:42.877Z,97962.00
2018-06-14T05:46:14.618Z,97963.00
2018-06-14T05:48:46.271Z,97965.00
2018-06-14T05:51:17.935Z,97968.00
2018-06-14T05:53:49.472Z,97966.00
2018-06-14T05:56:21.065Z,97970.00
2018-06-14T05:58:52.677Z,97973.00
2018-06-14T06:01:24.417Z,97972.00
2018-06-14T06:03:56.219Z,97973.00
2018-06-14T06:06:27.890Z,97975.00
2018-06-14T06:08:59.584Z,97978.00
2018-06-14T06:11:31.208Z,97983.00
2018-06-14T06:14:02.937Z,97979.00
2018-06-14T06:16:34.594Z,97973.00
2018-06-14T06:19:06.172Z,97971.00
2018-06-14T06:21:37.700Z,97972.00
2018-06-14T06:24:09.254Z,97970.00
2018-06-14T06:26:40.837Z,97975.00
2018-06-14T06:29:12.579Z,97973.00
2018-06-14T06:31:44.157Z,97979.00
2018-06-14T06:34:15.805Z,97977.00
2018-06-14T06:36:47.540Z,97971.00
2018-06-14T06:39:19.146Z,97975.00
2018-06-14T06:41:50.862Z,97969.00
2018-06-14T06:44:22.563Z,97966.00
2018-06-14T06:46:54.194Z,97963.00
2018-06-14T06:49:25.923Z,97966.00
2018-06-14T06:51:57.470Z,97967.00
2018-06-14T06:54:29.133Z,97965.00
2018-06-14T06:57:00.856Z,97960.00
2018-06-14T06:59:32.475Z,97960.00
2018-06-14T07:02:04.205Z,97957.00
2018-06-14T07:04:36.092Z,97955.00
2018-06-14T07:07:07.941Z,97957.00
2018-06-14T07:09:39.588Z,97955.00
2018-06-14T07:12:12.181Z,97955.00
2018-06-14T07:14:43.981Z,97961.00
2018-06-14T07:17:15.503Z,97955.00
2018-06-14T07:19:47.246Z,97956.00
2018-06-14T07:22:18.892Z,97954.00
2018-06-14T07:24:50.469Z,97957.00
2018-06-14T07:27:22.166Z,97956.00
2018-06-14T07:29:53.780Z,97958.00
2018-06-14T07:32:25.420Z,97953.00
2018-06-14T07:34:56.996Z,97950.00
2018-06-14T07:37:28.766Z,97951.00
2018-06-14T07:40:00.378Z,97951.00
2018-06-14T07:42:32.040Z,97952.00
2018-06-14T07:45:03.611Z,97951.00
2018-06-14T07:47:35.252Z,97951.00
2018-06-14T07:50:06.914Z,97945.00
2018-06-14T07:52:38.459Z,97945.00
2018-06-14T07:55:10.218Z,97946.00
2018-06-14T07:57:41.877Z,97950.00
2018-06-14T08:00:13.553Z,97950.00
2018-06-14T08:02:45.290Z,97948.00
2018-06-14T08:05:16.847Z,97949.00
2018-06-14T08:07:48.505Z,97953.00
2018-06-14T08:10:20.218Z,97953.00
2018-06-14T08:12:51.833Z,97959.00
2018-06-14T08:15:23.473Z,97951.00
2018-06-14T08:17:54.948Z,97951.00
2018-06-14T08:20:26.837Z,97949.00
2018-06-14T08:22:58.695Z,97955.00
2018-06-14T08:25:30.301Z,97960.00
2018-06-14T08:28:01.965Z,97965.00
2018-06-14T08:30:33.762Z,97967.00
2018-06-14T08:33:05.534Z,97967.00
2018-06-14T08:35:37.185Z,97962.00
2018-06-14T08:38:08.898Z,97965.00
2018-06-14T08:40:40.531Z,97968.00
2018-06-14T08:43:12.225Z,97966.00
2018-06-14T08:45:43.879Z,97965.00
2018-06-14T08:48:15.518Z,97966.00
2018-06-14T08:50:47.237Z,97971.00
2018-06-14T08:53:18.853Z,97967.00
2018-06-14T08:55:50.490Z,97969.00
2018-06-14T08:58:22.069Z,97967.00
2018-06-14T09:00:53.799Z,97969.00
2018-06-14T09:03:25.351Z,97963.00
2018-06-14T09:05:57.102Z,97965.00
2018-06-14T09:08:28.877Z,97961.00
2018-06-14T09:11:00.465Z,97960.00
2018-06-14T09:13:32.188Z,97960.00
2018-06-14T09:16:03.730Z,97962.00
2018-06-14T09:18:35.322Z,97956.00
2018-06-14T09:21:07.108Z,97955.00
2018-06-14T09:23:38.756Z,97958.00
2018-06-14T09:26:10.474Z,97959.00
2018-06-14T09:28:42.112Z,97959.00
2018-06-14T09:31:13.776Z,97957.00
2018-06-14T09:33:45.317Z,97952.00
2018-06-14T09:36:16.912Z,97950.00
2018-06-14T09:38:48.606Z,97952.00
2018-06-14T09:41:20.234Z,97951.00
2018-06-14T09:43:52.062Z,97950.00
2018-06-14T09:46:23.607Z,97949.00
2018-06-14T09:49:00.393Z,97951.00
2018-06-14T09:51:32.053Z,97952.00
2018-06-14T09:54:03.636Z,97957.00
2018-06-14T09:56:35.496Z,97953.00
2018-06-14T09:59:07.245Z,97956.00
2018-06-14T10:01:38.893Z,97955.00
2018-06-14T10:04:10.481Z,97955.00
2018-06-14T10:06:42.157Z,97953.00
2018-06-14T10:09:14.137Z,97951.00
2018-06-14T10:11:45.873Z,97951.00
2018-06-14T10:14:17.450Z,97952.00
2018-06-14T10:16:49.125Z,97952.00
2018-06-14T10:19:20.884Z,97948.00
2018-06-14T10:21:52.485Z,97948.00
2018-06-14T10:24:24.197Z,97951.00
2018-06-14T10:26:55.484Z,97952.00
2018-06-14T10:29:27.219Z,97945.00
2018-06-14T10:31:58.778Z,97940.00
2018-06-14T10:34:30.213Z,97939.00
2018-06-14T10:37:01.866Z,97935.00
2018-06-14T10:39:33.404Z,97935.00
2018-06-14T10:42:05.005Z,97930.00
2018-06-14T10:44:36.737Z,97934.00
2018-06-14T10:47:08.214Z,97933.00
2018-06-14T10:49:40.751Z,97933.00
2018-06-14T10:52:12.428Z,97926.00
2018-06-14T10:54:44.000Z,97928.00
2018-06-14T10:57:15.633Z,97931.00
2018-06-14T10:59:47.205Z,97919.00
2018-06-14T11:02:18.940Z,97917.00
2018-06-14T11:04:50.560Z,97923.00
2018-06-14T11:07:22.253Z,97919.00
2018-06-14T11:09:53.925Z,97919.00
2018-06-14T11:12:25.495Z,97916.00
2018-06-14T11:14:56.773Z,97916.00
2018-06-14T11:17:28.521Z,97913.00
2018-06-14T11:20:00.332Z,97909.00
2018-06-14T11:22:31.804Z,97911.00
2018-06-14T11:25:03.881Z,97908.00
2018-06-14T11:27:35.500Z,97909.00
2018-06-14T11:30:07.290Z,97917.00
2018-06-14T11:32:38.982Z,97908.00
2018-06-14T11:35:10.610Z,97905.00
2018-06-14T11:37:42.335Z,97901.00
2018-06-14T11:40:13.889Z,97898.00
2018-06-14T11:42:45.475Z,97893.00
2018-06-14T11:45:17.264Z,97889.00
2018-06-14T11:47:48.778Z,97884.00
2018-06-14T11:50:20.414Z,97883.00
2018-06-14T11:52:51.965Z,97876.00
2018-06-14T11:55:23.724Z,97877.00
2018-06-14T11:57:55.445Z,97879.00
2018-06-14T12:00:27.180Z,97882.00
2018-06-14T12:02:59.042Z,97874.00
2018-06-14T12:05:30.720Z,97875.00
2018-06-14T12:08:02.347Z,97872.00
2018-06-14T12:10:34.025Z,97870.00
2018-06-14T12:13:05.662Z,97867.00
2018-06-14T12:15:37.397Z,97865.00
2018-06-14T12:18:08.949Z,97860.00
2018-06-14T12:20:40.595Z,97859.00
2018-06-14T12:23:12.254Z,97860.00
2018-06-14T12:25:43.837Z,97860.00
2018-06-14T12:28:15.362Z,97863.00
2018-06-14T12:30:47.047Z,97868.00
2018-06-14T12:33:18.565Z,97865.00
2018-06-14T12:35:50.155Z,97862.00
2018-06-14T12:38:21.683Z,97861.00
2018-06-14T12:40:53.335Z,97856.00
2018-06-14T12:43:24.883Z,97861.00
2018-06-14T12:45:56.478Z,97861.00
2018-06-14T12:48:28.215Z,97859.00
2018-06-14T12:50:59.793Z,97857.00
2018-06-14T12:53:31.620Z,97851.00
2018-06-14T12:56:03.277Z,97841.00
2018-06-14T12:58:34.905Z,97847.00
2018-06-14T13:01:06.594Z,97844.00
2018-06-14T13:03:38.168Z,97837.00
2018-06-14T13:06:09.897Z,97837.00
2018-06-14T13:08:41.458Z,97829.00
2018-06-14T13:11:13.055Z,97826.00
2018-06-14T13:13:44.896Z,97825.00
2018-06-14T13:16:16.449Z,97826.00
2018-06-14T13:18:48.193Z,97820.00
2018-06-14T13:21:19.741Z,97828.00
2018-06-14T13:23:51.331Z,97829.00
2018-06-14T13:26:23.051Z,97833.00
2018-06-14T13:28:54.706Z,97832.00
2018-06-14T13:31:25.906Z,97830.00
2018-06-14T13:33:57.510Z,97823.00
2018-06-14T13:36:29.604Z,97821.00
2018-06-14T13:39:01.054Z,97823.00
2018-06-14T13:41:32.781Z,97820.00
2018-06-14T13:44:04.410Z,97810.00
2018-06-14T13:46:40.132Z,97807.00
2018-06-14T13:49:12.011Z,97809.00
2018-06-14T13:51:43.493Z,97815.00
2018-06-14T13:54:15.174Z,97809.00
2018-06-14T13:56:46.893Z,97800.00
2018-06-14T13:59:18.514Z,97797.00
2018-06-14T14:01:50.239Z,97795.00
2018-06-14T14:04:21.861Z,97797.00
2018-06-14T14:07:00.407Z,97797.00
2018-06-14T14:09:31.989Z,97793.00
2018-06-14T14:12:03.722Z,97797.00
2018-06-14T14:14:35.416Z,97795.00
2018-06-14T14:17:07.053Z,97786.00
2018-06-14T14:19:38.699Z,97785.00
2018-06-14T14:22:10.278Z,97782.00
2018-06-14T14:24:41.905Z,97779.00
2018-06-14T14:27:13.465Z,97779.00
2018-06-14T14:29:45.217Z,97779.00
2018-06-14T14:32:16.927Z,97783.00
2018-06-14T14:34:48.558Z,97771.00
2018-06-14T14:37:20.287Z,97768.00
2018-06-14T14:39:51.926Z,97769.00
2018-06-14T14:42:23.605Z,97763.00
2018-06-14T14:44:55.145Z,97767.00
2018-06-14T14:47:26.737Z,97768.00
2018-06-14T14:49:58.425Z,97765.00
2018-06-14T14:52:30.050Z,97762.00
2018-06-14T14:55:01.819Z,97758.00
2018-06-14T14:57:33.456Z,97757.00
2018-06-14T15:00:04.553Z,97763.00
2018-06-14T15:02:36.137Z,97766.00
2018-06-14T15:05:07.916Z,97767.00
2018-06-14T15:07:39.469Z,97763.00
2018-06-14T15:10:11.409Z,97759.00
2018-06-14T15:12:42.953Z,97759.00
2018-06-14T15:15:14.622Z,97761.00
2018-06-14T15:17:46.292Z,97762.00
2018-06-14T15:20:17.966Z,97759.00
2018-06-14T15:22:49.590Z,97755.00
2018-06-14T15:25:21.179Z,97763.00
2018-06-14T15:27:53.005Z,97753.00
2018-06-14T15:30:24.658Z,97756.00
2018-06-14T15:32:56.372Z,97755.00
2018-06-14T15:35:28.079Z,97752.00
2018-06-14T15:37:59.657Z,97750.00
2018-06-14T15:40:31.392Z,97744.00
2018-06-14T15:43:02.949Z,97745.00
2018-06-14T15:45:34.608Z,97745.00
2018-06-14T15:48:06.165Z,97740.00
2018-06-14T15:50:37.211Z,97741.00
2018-06-14T15:53:08.781Z,97743.00
2018-06-14T15:56:15.190Z,97735.00
2018-06-14T15:58:47.289Z,97737.00
2018-06-14T16:01:18.947Z,97736.00
2018-06-14T16:03:50.673Z,97735.00
2018-06-14T16:06:22.365Z,97739.00
2018-06-14T16:08:54.199Z,97732.00
2018-06-14T16:11:25.803Z,97735.00
2018-06-14T16:13:57.537Z,97736.00
2018-06-14T16:16:28.702Z,97733.00
2018-06-14T16:19:00.341Z,97727.00
2018-06-14T16:21:31.917Z,97727.00
2018-06-14T16:24:03.404Z,97730.00
2018-06-14T16:26:35.021Z,97724.00
2018-06-14T16:29:06.597Z,97727.00
2018-06-14T16:31:38.237Z,97730.00
2018-06-14T16:34:09.746Z,97724.00
2018-06-14T16:36:41.426Z,97725.00
2018-06-14T16:39:13.075Z,97725.00
2018-06-14T16:41:45.613Z,97724.00
2018-06-14T16:44:17.515Z,97724.00
2018-06-14T16:46:49.092Z,97717.00
2018-06-14T16:49:20.626Z,97722.00
2018-06-14T16:51:52.217Z,97721.00
2018-06-14T16:54:23.954Z,97715.00
2018-06-14T16:56:55.617Z,97716.00
2018-06-14T16:59:27.351Z,97718.00
2018-06-14T17:01:58.888Z,97718.00
2018-06-14T17:04:30.563Z,97715.00
2018-06-14T17:07:02.113Z,97715.00
2018-06-14T17:09:33.729Z,97716.00
2018-06-14T17:12:05.353Z,97722.00
2018-06-14T17:14:37.236Z,97720.00
2018-06-14T17:17:08.945Z,97714.00
2018-06-14T17:19:40.495Z,97710.00
2018-06-14T17:22:12.113Z,97712.00
2018-06-14T17:24:43.702Z,97712.00
2018-06-14T17:27:15.392Z,97717.00
2018-06-14T17:29:47.007Z,97719.00
2018-06-14T17:32:18.681Z,97719.00
2018-06-14T17:34:49.803Z,97723.00
2018-06-14T17:37:21.439Z,97721.00
2018-06-14T17:39:53.020Z,97725.00
2018-06-14T17:42:24.688Z,97727.00
2018-06-14T17:44:56.186Z,97730.00
2018-06-14T17:47:28.004Z,97734.00
2018-06-14T17:49:59.660Z,97736.00
2018-06-14T17:52:31.241Z,97740.00
2018-06-14T17:55:03.039Z,97741.00
2018-06-14T17:57:34.653Z,97739.00
2018-06-14T18:00:06.378Z,97736.00
2018-06-14T18:02:38.046Z,97739.00
2018-06-14T18:05:09.891Z,97750.00
2018-06-14T18:07:41.417Z,97752.00
2018-06-14T18:10:12.988Z,97752.00
2018-06-14T18:12:44.671Z,97758.00
2018-06-14T18:15:16.173Z,97764.00
2018-06-14T18:17:47.913Z,97768.00
2018-06-14T18:20:19.663Z,97769.00
2018-06-14T18:22:51.220Z,97764.00
2018-06-14T18:25:22.913Z,97762.00
2018-06-14T18:27:54.530Z,97759.00
2018-06-14T18:30:26.266Z,97764.00
2018-06-14T18:32:57.924Z,97765.00
2018-06-14T18:35:29.549Z,97768.00
2018-06-14T18:38:01.152Z,97765.00
2018-06-14T18:40:32.778Z,97774.00
2018-06-14T18:43:04.449Z,97776.00
2018-06-14T18:45:36.104Z,97780.00
2018-06-14T18:48:07.655Z,97782.00
2018-06-14T18:50:39.325Z,97786.00
2018-06-14T18:53:10.898Z,97789.00
2018-06-14T18:55:42.626Z,97789.00
2018-06-14T18:58:14.281Z,97795.00
2018-06-14T19:00:45.819Z,97790.00
2018-06-14T19:03:17.635Z,97787.00
2018-06-14T19:05:49.335Z,97793.00
2018-06-14T19:08:21.012Z,97795.00
2018-06-14T19:10:52.134Z,97797.00
2018-06-14T19:13:23.814Z,97806.00
2018-06-14T19:15:55.468Z,97803.00
2018-06-14T19:18:27.048Z,97805.00
2018-06-14T19:20:58.639Z,97820.00
2018-06-14T19:23:30.354Z,97822.00
2018-06-14T19:26:01.874Z,97826.00
2018-06-14T19:28:33.647Z,97831.00
2018-06-14T19:31:05.408Z,97834.00
2018-06-14T19:33:37.268Z,97840.00
2018-06-14T19:36:08.883Z,97844.00
2018-06-14T19:38:40.590Z,97846.00
2018-06-14T19:41:12.129Z,97850.00
2018-06-14T19:43:44.416Z,97862.00
2018-06-14T19:46:16.022Z,97864.00
2018-06-14T19:48:47.614Z,97867.00
2018-06-14T19:51:19.323Z,97875.00
2018-06-14T19:53:51.032Z,97876.00
2018-06-14T19:56:22.533Z,97873.00
2018-06-14T19:58:54.329Z,97874.00
2018-06-14T20:01:25.949Z,97876.00
2018-06-14T20:03:57.582Z,97878.00
2018-06-14T20:06:29.069Z,97879.00
2018-06-14T20:09:00.765Z,97877.00
2018-06-14T20:11:32.421Z,97882.00
2018-06-14T20:14:04.067Z,97885.00
2018-06-14T20:16:35.720Z,97887.00
2018-06-14T20:19:07.328Z,97888.00
2018-06-14T20:21:39.035Z,97889.00
2018-06-14T20:24:10.601Z,97886.00
2018-06-14T20:26:42.360Z,97889.00
2018-06-14T20:29:13.910Z,97889.00
2018-06-14T20:31:45.624Z,97889.00
2018-06-14T20:34:17.383Z,97898.00
2018-06-14T20:36:49.048Z,97894.00
2018-06-14T20:39:20.754Z,97900.00
2018-06-14T20:41:52.446Z,97900.00
2018-06-14T20:44:24.163Z,97901.00
2018-06-14T20:46:55.829Z,97896.00
2018-06-14T20:49:27.446Z,97899.00
2018-06-14T20:51:59.134Z,97902.00
2018-06-14T20:54:30.713Z,97901.00
2018-06-14T20:57:02.400Z,97906.00
2018-06-14T20:59:34.201Z,97905.00
2018-06-14T21:02:05.743Z,97906.00
2018-06-14T21:04:37.305Z,97907.00
2018-06-14T21:07:08.918Z,97909.00
2018-06-14T21:09:40.688Z,97916.00
2018-06-14T21:12:12.264Z,97915.00
2018-06-14T21:14:44.037Z,97912.00
2018-06-14T21:17:15.695Z,97922.00
2018-06-14T21:19:47.281Z,97909.00
2018-06-14T21:22:18.848Z,97914.00
2018-06-14T21:24:50.564Z,97920.00
2018-06-14T21:27:22.218Z,97920.00
2018-06-14T21:29:53.977Z,97918.00
2018-06-14T21:32:25.581Z,97925.00
2018-06-14T21:34:57.878Z,97923.00
2018-06-14T21:37:29.512Z,97921.00
2018-06-14T21:40:01.262Z,97925.00
2018-06-14T21:42:33.608Z,97924.00
2018-06-14T21:45:05.209Z,97930.00
2018-06-14T21:47:37.160Z,97929.00
2018-06-14T21:50:08.825Z,97931.00
2018-06-14T21:52:40.477Z,97929.00
2018-06-14T21:55:12.127Z,97930.00
2018-06-14T21:57:44.223Z,97933.00
2018-06-14T22:00:15.625Z,97934.00
2018-06-14T22:02:51.958Z,97934.00
2018-06-14T22:05:23.540Z,97934.00
2018-06-14T22:07:55.178Z,97933.00
2018-06-14T22:10:26.717Z,97935.00
2018-06-14T22:12:58.340Z,97931.00
2018-06-14T22:15:29.974Z,97931.00
2018-06-14T22:18:01.686Z,97926.00
2018-06-14T22:20:33.279Z,97928.00
2018-06-14T22:23:05.023Z,97926.00
2018-06-14T22:25:36.716Z,97929.00
2018-06-14T22:28:08.309Z,97932.00
2018-06-14T22:30:39.979Z,97931.00
2018-06-14T22:33:27.760Z,97945.00
2018-06-14T22:35:59.398Z,97939.00
2018-06-14T22:38:31.041Z,97938.00
2018-06-14T22:41:02.514Z,97936.00
2018-06-14T22:43:34.088Z,97941.00
2018-06-14T22:46:05.801Z,97938.00
2018-06-14T22:48:37.445Z,97940.00
2018-06-14T22:51:19.785Z,97941.00
2018-06-14T22:53:51.379Z,97932.00
2018-06-14T22:56:22.985Z,97940.00
2018-06-14T22:58:54.465Z,97942.00
2018-06-14T23:01:45.224Z,97943.00
2018-06-14T23:04:25.118Z,97951.00
2018-06-14T23:06:57.116Z,97949.00
2018-06-14T23:10:43.491Z,97942.00
2018-06-14T23:13:19.040Z,97946.00
2018-06-14T23:15:50.626Z,97943.00
2018-06-14T23:18:22.335Z,97949.00
2018-06-14T23:20:54.110Z,97949.00
2018-06-14T23:23:25.850Z,97950.00
2018-06-14T23:25:57.680Z,97954.00
2018-06-14T23:28:29.428Z,97953.00
2018-06-14T23:31:01.149Z,97949.00
2018-06-14T23:33:32.753Z,97948.00
2018-06-14T23:36:04.299Z,97948.00
2018-06-14T23:38:35.977Z,97947.00
2018-06-14T23:41:07.493Z,97947.00
2018-06-14T23:43:39.183Z,97949.00
2018-06-14T23:46:10.828Z,97941.00
2018-06-14T23:48:42.409Z,97941.00
2018-06-14T23:51:14.050Z,97942.00
2018-06-14T23:53:45.613Z,97946.00
2018-06-14T23:56:17.250Z,97944.00
2018-06-14T23:58:48.797Z,97947.00
